createdAt,value
2019-03-01T00:02:29.033Z,118.03
2019-03-01T00:05:35.888Z,143.63
2019-03-01T00:08:17.220Z,156.43
2019-03-01T00:11:23.994Z,169.57
2019-03-01T00:14:30.010Z,156.40
2019-03-01T00:17:31.748Z,154.77
2019-03-01T00:20:45.854Z,132.70
2019-03-01T00:23:56.050Z,100.03
2019-03-01T00:26:48.182Z,102.37
2019-03-01T00:29:49.075Z,110.10
2019-03-01T00:32:47.042Z,89.17
2019-03-01T00:35:43.691Z,64.57
2019-03-01T00:38:29.826Z,47.10
2019-03-01T00:41:24.847Z,40.57
2019-03-01T00:44:19.545Z,40.80
2019-03-01T00:46:49.238Z,36.77
2019-03-01T00:49:19.014Z,36.67
2019-03-01T00:51:48.654Z,38.37
2019-03-01T00:54:18.273Z,37.93
2019-03-01T00:56:47.961Z,36.97
2019-03-01T00:59:17.613Z,38.33
2019-03-01T01:01:47.418Z,38.47
2019-03-01T01:04:17.037Z,37.23
2019-03-01T01:06:46.650Z,37.40
2019-03-01T01:09:16.343Z,35.73
2019-03-01T01:11:45.957Z,39.63
2019-03-01T01:14:15.566Z,38.87
2019-03-01T01:16:45.179Z,41.80
2019-03-01T01:19:14.864Z,38.90
2019-03-01T01:21:44.488Z,45.17
2019-03-01T01:24:14.122Z,47.73
2019-03-01T01:26:43.714Z,49.27
2019-03-01T01:29:13.338Z,56.73
2019-03-01T01:31:42.950Z,60.07
2019-03-01T01:34:12.622Z,63.87
2019-03-01T01:36:42.233Z,71.73
2019-03-01T01:39:12.304Z,77.10
2019-03-01T01:41:41.938Z,83.70
2019-03-01T01:44:11.561Z,87.37
2019-03-01T01:46:41.283Z,94.20
2019-03-01T01:49:10.893Z,90.93
2019-03-01T01:51:40.521Z,101.80
2019-03-01T01:54:10.154Z,98.70
2019-03-01T01:56:40.009Z,104.30
2019-03-01T01:59:09.686Z,99.43
2019-03-01T02:01:39.398Z,109.83
2019-03-01T02:04:09.030Z,109.03
2019-03-01T02:06:38.635Z,112.80
2019-03-01T02:09:24.426Z,104.50
2019-03-01T02:11:54.369Z,105.67
2019-03-01T02:14:25.479Z,104.33
2019-03-01T02:16:56.106Z,99.93
2019-03-01T02:19:25.730Z,99.17
2019-03-01T02:21:55.327Z,88.03
2019-03-01T02:24:25.039Z,107.40
2019-03-01T02:27:20.043Z,92.17
2019-03-01T02:29:49.969Z,77.37
2019-03-01T02:32:32.592Z,88.23
2019-03-01T02:35:02.213Z,91.03
2019-03-01T02:37:32.942Z,88.83
2019-03-01T02:40:02.782Z,83.53
2019-03-01T02:42:32.456Z,92.80
2019-03-01T02:45:02.094Z,90.93
2019-03-01T02:47:31.711Z,88.43
2019-03-01T02:50:01.331Z,88.30
2019-03-01T02:52:30.955Z,77.33
2019-03-01T02:55:00.601Z,83.93
2019-03-01T02:57:30.303Z,71.73
2019-03-01T02:59:59.937Z,81.57
2019-03-01T03:02:29.545Z,83.00
2019-03-01T03:04:59.163Z,80.50
2019-03-01T03:07:37.270Z,79.97
2019-03-01T03:10:07.033Z,75.70
2019-03-01T03:12:36.696Z,76.60
2019-03-01T03:15:07.021Z,78.77
2019-03-01T03:17:36.641Z,75.63
2019-03-01T03:20:06.941Z,74.10
2019-03-01T03:22:36.574Z,82.77
2019-03-01T03:25:06.888Z,78.10
2019-03-01T03:27:36.498Z,78.87
2019-03-01T03:30:07.414Z,74.13
2019-03-01T03:32:37.049Z,77.93
2019-03-01T03:35:06.935Z,81.80
2019-03-01T03:37:36.553Z,83.40
2019-03-01T03:40:07.598Z,84.10
2019-03-01T03:42:37.212Z,89.80
2019-03-01T03:45:07.923Z,100.93
2019-03-01T03:47:37.572Z,113.53
2019-03-01T03:50:08.737Z,119.60
2019-03-01T03:52:38.381Z,124.47
2019-03-01T03:55:09.348Z,119.70
2019-03-01T03:57:39.138Z,126.67
2019-03-01T04:00:17.510Z,127.47
2019-03-01T04:02:47.427Z,133.23
2019-03-01T04:05:17.234Z,139.10
2019-03-01T04:07:47.141Z,140.67
2019-03-01T04:10:16.827Z,136.63
2019-03-01T04:12:46.559Z,137.93
2019-03-01T04:15:16.511Z,145.20
2019-03-01T04:17:46.182Z,142.17
2019-03-01T04:20:16.686Z,146.47
2019-03-01T04:22:46.483Z,144.50
2019-03-01T04:25:16.364Z,149.10
2019-03-01T04:27:45.994Z,145.20
2019-03-01T04:30:16.555Z,148.30
2019-03-01T04:32:46.764Z,145.80
2019-03-01T04:35:17.228Z,150.67
2019-03-01T04:37:46.857Z,164.67
2019-03-01T04:40:16.577Z,157.67
2019-03-01T04:42:46.355Z,161.43
2019-03-01T04:45:16.104Z,163.87
2019-03-01T04:47:45.713Z,171.20
2019-03-01T04:50:15.427Z,168.87
2019-03-01T04:52:45.056Z,185.07
2019-03-01T04:55:17.030Z,190.33
2019-03-01T04:57:46.738Z,202.60
2019-03-01T05:00:35.627Z,213.13
2019-03-01T05:03:05.329Z,216.70
2019-03-01T05:05:35.053Z,226.00
2019-03-01T05:08:05.723Z,218.93
2019-03-01T05:10:35.327Z,217.50
2019-03-01T05:13:05.032Z,239.37
2019-03-01T05:15:35.628Z,213.13
2019-03-01T05:18:05.307Z,223.47
2019-03-01T05:20:34.922Z,219.13
2019-03-01T05:23:06.426Z,202.63
2019-03-01T05:25:36.081Z,197.97
2019-03-01T05:28:05.754Z,203.60
2019-03-01T05:30:36.355Z,192.93
2019-03-01T05:33:05.962Z,193.10
2019-03-01T05:35:35.804Z,200.10
2019-03-01T05:38:05.488Z,190.33
2019-03-01T05:40:35.117Z,196.30
2019-03-01T05:43:04.816Z,187.03
2019-03-01T05:45:35.498Z,191.63
2019-03-01T05:48:05.137Z,178.57
2019-03-01T05:50:34.822Z,168.40
2019-03-01T05:53:04.525Z,176.27
2019-03-01T05:55:34.134Z,181.43
2019-03-01T05:58:26.739Z,171.43
2019-03-01T06:00:58.422Z,151.90
2019-03-01T06:04:05.439Z,139.63
2019-03-01T06:07:02.523Z,127.20
2019-03-01T06:10:05.577Z,107.07
2019-03-01T06:13:06.330Z,104.23
2019-03-01T06:16:15.610Z,49.07
2019-03-01T06:19:23.493Z,78.63
2019-03-01T06:22:34.465Z,56.33
2019-03-01T06:25:57.772Z,46.23
2019-03-01T06:28:45.210Z,29.67
2019-03-01T06:32:04.238Z,26.23
2019-03-01T06:35:12.139Z,28.17
2019-03-01T06:38:12.076Z,30.00
2019-03-01T06:41:23.613Z,30.57
2019-03-01T06:44:29.536Z,25.13
2019-03-01T06:47:10.911Z,24.43
2019-03-01T06:50:03.949Z,36.57
2019-03-01T06:52:33.674Z,31.23
2019-03-01T06:55:03.321Z,34.30
2019-03-01T06:57:32.934Z,34.60
2019-03-01T07:00:04.259Z,25.67
2019-03-01T07:02:42.398Z,30.03
2019-03-01T07:05:12.101Z,26.13
2019-03-01T07:07:41.696Z,23.10
2019-03-01T07:10:11.295Z,29.03
2019-03-01T07:12:40.963Z,23.17
2019-03-01T07:15:10.823Z,19.50
2019-03-01T07:17:40.452Z,27.60
2019-03-01T07:20:10.079Z,15.40
2019-03-01T07:22:39.734Z,20.63
2019-03-01T07:25:09.534Z,17.30
2019-03-01T07:27:39.238Z,21.00
2019-03-01T07:30:09.642Z,20.67
2019-03-01T07:32:39.287Z,11.67
2019-03-01T07:35:09.176Z,11.73
2019-03-01T07:37:38.785Z,9.33
2019-03-01T07:40:08.601Z,13.97
2019-03-01T07:42:38.350Z,13.77
2019-03-01T07:45:09.134Z,13.80
2019-03-01T07:47:38.875Z,12.90
2019-03-01T07:50:09.182Z,12.37
2019-03-01T07:52:38.944Z,14.93
2019-03-01T07:55:09.380Z,12.47
2019-03-01T07:57:39.199Z,11.87
2019-03-01T08:00:14.240Z,11.73
2019-03-01T08:02:45.348Z,6.60
2019-03-01T08:05:16.383Z,4.13
2019-03-01T08:07:55.403Z,5.70
2019-03-01T08:10:22.527Z,5.47
2019-03-01T08:12:48.775Z,3.93
2019-03-01T08:15:18.542Z,6.97
2019-03-01T08:17:48.164Z,5.33
2019-03-01T08:20:17.937Z,4.97
2019-03-01T08:22:49.231Z,3.40
2019-03-01T08:25:23.419Z,6.80
2019-03-01T08:27:50.628Z,4.33
2019-03-01T08:30:20.650Z,8.03
2019-03-01T08:32:50.327Z,7.00
2019-03-01T08:35:20.048Z,7.67
2019-03-01T08:37:53.202Z,6.33
2019-03-01T08:40:21.187Z,6.37
2019-03-01T08:42:50.901Z,7.77
2019-03-01T08:45:20.594Z,6.80
2019-03-01T08:47:50.270Z,6.50
2019-03-01T08:50:21.038Z,5.83
2019-03-01T08:52:51.091Z,7.40
2019-03-01T08:55:20.878Z,4.07
2019-03-01T08:57:50.494Z,5.77
2019-03-01T09:00:22.964Z,5.57
2019-03-01T09:02:55.678Z,6.23
2019-03-01T09:05:25.344Z,4.20
2019-03-01T09:07:55.035Z,6.37
2019-03-01T09:10:24.764Z,5.80
2019-03-01T09:12:54.367Z,7.50
2019-03-01T09:15:23.970Z,6.23
2019-03-01T09:17:53.730Z,5.80
2019-03-01T09:20:23.324Z,3.83
2019-03-01T09:22:52.935Z,7.50
2019-03-01T09:25:22.573Z,3.50
2019-03-01T09:27:53.259Z,6.37
2019-03-01T09:30:24.504Z,5.07
2019-03-01T09:32:54.135Z,3.73
2019-03-01T09:35:29.881Z,3.97
2019-03-01T09:38:00.326Z,4.43
2019-03-01T09:40:30.017Z,4.47
2019-03-01T09:43:00.999Z,3.33
2019-03-01T09:45:36.108Z,4.63
2019-03-01T09:48:02.358Z,4.27
2019-03-01T09:50:34.583Z,3.40
2019-03-01T09:53:03.395Z,2.23
2019-03-01T09:55:34.806Z,2.53
2019-03-01T09:58:04.639Z,2.53
2019-03-01T10:00:34.710Z,2.20
2019-03-01T10:03:04.410Z,2.27
2019-03-01T10:05:34.090Z,1.67
2019-03-01T10:08:03.885Z,2.33
2019-03-01T10:10:33.681Z,1.93
2019-03-01T10:13:03.317Z,2.13
2019-03-01T10:15:33.066Z,1.97
2019-03-01T10:18:02.765Z,1.30
2019-03-01T10:20:32.393Z,2.10
2019-03-01T10:23:02.010Z,1.77
2019-03-01T10:25:31.642Z,1.30
2019-03-01T10:28:01.255Z,0.97
2019-03-01T10:30:30.954Z,1.60
2019-03-01T10:33:00.640Z,1.43
2019-03-01T10:35:30.486Z,1.67
2019-03-01T10:38:00.106Z,0.57
2019-03-01T10:40:29.706Z,0.90
2019-03-01T10:42:59.314Z,1.07
2019-03-01T10:45:29.227Z,0.70
2019-03-01T10:47:58.937Z,1.97
2019-03-01T10:50:28.559Z,1.00
2019-03-01T10:52:58.177Z,0.70
2019-03-01T10:55:27.859Z,1.70
2019-03-01T10:57:57.542Z,0.77
2019-03-01T11:00:27.582Z,0.60
2019-03-01T11:02:57.304Z,0.70
2019-03-01T11:05:28.402Z,1.10
2019-03-01T11:07:58.106Z,0.30
2019-03-01T11:10:30.081Z,1.03
2019-03-01T11:12:59.851Z,0.37
2019-03-01T11:15:29.681Z,0.40
2019-03-01T11:17:59.321Z,1.33
2019-03-01T11:20:29.197Z,0.67
2019-03-01T11:22:58.871Z,0.50
2019-03-01T11:25:28.583Z,0.67
2019-03-01T11:27:58.274Z,0.67
2019-03-01T11:30:29.314Z,0.90
2019-03-01T11:32:59.086Z,0.57
2019-03-01T11:35:28.862Z,0.60
2019-03-01T11:37:58.622Z,0.70
2019-03-01T11:40:30.524Z,0.47
2019-03-01T11:43:00.747Z,0.90
2019-03-01T11:45:30.523Z,0.60
2019-03-01T11:48:00.222Z,0.67
2019-03-01T11:50:32.126Z,0.20
2019-03-01T11:53:01.806Z,0.93
2019-03-01T11:55:31.586Z,0.10
2019-03-01T11:58:01.198Z,0.60
2019-03-01T12:00:31.094Z,0.80
2019-03-01T12:03:00.911Z,0.20
2019-03-01T12:05:30.532Z,0.43
2019-03-01T12:08:00.158Z,0.60
2019-03-01T12:10:30.124Z,0.47
2019-03-01T12:12:59.745Z,0.53
2019-03-01T12:15:30.426Z,0.47
2019-03-01T12:18:00.027Z,0.70
2019-03-01T12:20:29.962Z,0.53
2019-03-01T12:22:59.730Z,0.40
2019-03-01T12:25:29.363Z,0.40
2019-03-01T12:27:59.006Z,0.90
2019-03-01T12:30:28.760Z,1.00
2019-03-01T12:32:58.438Z,0.43
2019-03-01T12:35:28.035Z,0.77
2019-03-01T12:37:57.641Z,0.80
2019-03-01T12:40:27.651Z,0.43
2019-03-01T12:42:57.282Z,0.53
2019-03-01T12:45:26.905Z,0.40
2019-03-01T12:47:56.594Z,1.53
2019-03-01T12:50:26.202Z,0.47
2019-03-01T12:52:55.826Z,0.30
2019-03-01T12:55:25.476Z,0.43
2019-03-01T12:57:55.091Z,1.13
2019-03-01T13:00:27.084Z,1.00
2019-03-01T13:02:56.707Z,0.53
2019-03-01T13:05:29.432Z,0.40
2019-03-01T13:07:57.932Z,0.43
2019-03-01T13:10:28.493Z,0.70
2019-03-01T13:12:58.714Z,0.40
2019-03-01T13:15:29.492Z,0.57
2019-03-01T13:17:59.298Z,1.00
2019-03-01T13:20:29.929Z,0.30
2019-03-01T13:23:01.030Z,0.90
2019-03-01T13:25:30.931Z,1.23
2019-03-01T13:28:00.581Z,0.37
2019-03-01T13:30:32.697Z,0.30
2019-03-01T13:33:03.410Z,0.73
2019-03-01T13:35:33.610Z,0.27
2019-03-01T13:38:04.025Z,1.07
2019-03-01T13:40:33.850Z,0.73
2019-03-01T13:43:03.481Z,0.10
2019-03-01T13:45:33.180Z,0.60
2019-03-01T13:48:03.388Z,0.33
2019-03-01T13:50:33.075Z,0.97
2019-03-01T13:53:02.712Z,0.30
2019-03-01T13:55:32.389Z,0.57
2019-03-01T13:58:02.031Z,0.30
2019-03-01T14:00:31.781Z,0.37
2019-03-01T14:03:01.394Z,0.20
2019-03-01T14:05:31.007Z,0.27
2019-03-01T14:08:08.563Z,0.30
2019-03-01T14:10:32.267Z,0.23
2019-03-01T14:13:01.886Z,0.20
2019-03-01T14:15:31.646Z,0.57
2019-03-01T14:18:02.009Z,0.30
2019-03-01T14:20:31.745Z,0.40
2019-03-01T14:23:01.397Z,0.30
2019-03-01T14:25:31.089Z,0.30
2019-03-01T14:28:02.105Z,0.87
2019-03-01T14:30:33.458Z,0.90
2019-03-01T14:33:03.250Z,0.57
2019-03-01T14:35:32.894Z,0.30
2019-03-01T14:38:02.543Z,0.27
2019-03-01T14:40:32.187Z,0.40
2019-03-01T14:43:01.883Z,0.70
2019-03-01T14:45:31.530Z,0.50
2019-03-01T14:48:01.231Z,0.70
2019-03-01T14:50:33.600Z,0.50
2019-03-01T14:53:02.339Z,0.50
2019-03-01T14:55:38.518Z,0.50
2019-03-01T14:58:12.182Z,0.30
2019-03-01T15:01:00.643Z,0.40
2019-03-01T15:03:39.781Z,0.47
2019-03-01T15:06:10.382Z,0.50
2019-03-01T15:08:44.234Z,0.37
2019-03-01T15:11:18.506Z,0.60
2019-03-01T15:13:49.343Z,0.63
2019-03-01T15:16:18.950Z,0.30
2019-03-01T15:18:48.891Z,0.80
2019-03-01T15:21:18.516Z,0.40
2019-03-01T15:23:48.195Z,0.73
2019-03-01T15:26:17.953Z,0.43
2019-03-01T15:28:58.840Z,0.83
2019-03-01T15:31:28.738Z,0.23
2019-03-01T15:33:58.362Z,0.80
2019-03-01T15:36:27.975Z,1.20
2019-03-01T15:38:57.602Z,0.70
2019-03-01T15:41:27.282Z,0.40
2019-03-01T15:43:56.979Z,0.40
2019-03-01T15:46:26.695Z,0.63
2019-03-01T15:48:56.336Z,0.40
2019-03-01T15:51:25.957Z,1.07
2019-03-01T15:53:57.565Z,0.47
2019-03-01T15:56:28.216Z,0.30
2019-03-01T15:58:57.832Z,0.63
2019-03-01T16:01:27.496Z,0.30
2019-03-01T16:03:58.029Z,0.50
2019-03-01T16:06:27.906Z,0.90
2019-03-01T16:08:57.612Z,0.50
2019-03-01T16:11:27.222Z,0.73
2019-03-01T16:13:56.818Z,0.60
2019-03-01T16:16:26.438Z,0.87
2019-03-01T16:18:56.069Z,0.30
2019-03-01T16:21:25.766Z,0.27
2019-03-01T16:23:55.379Z,0.40
2019-03-01T16:26:29.784Z,0.80
2019-03-01T16:28:56.305Z,1.23
2019-03-01T16:31:28.977Z,0.80
2019-03-01T16:33:57.330Z,1.03
2019-03-01T16:36:36.016Z,0.90
2019-03-01T16:39:10.605Z,1.10
2019-03-01T16:41:42.915Z,0.93
2019-03-01T16:44:11.778Z,0.50
2019-03-01T16:46:41.511Z,0.40
2019-03-01T16:49:11.191Z,0.30
2019-03-01T16:51:40.828Z,0.60
2019-03-01T16:54:15.327Z,1.70
2019-03-01T16:56:42.010Z,1.37
2019-03-01T16:59:11.639Z,0.70
2019-03-01T17:01:41.330Z,0.63
2019-03-01T17:04:10.955Z,0.40
2019-03-01T17:06:40.591Z,0.83
2019-03-01T17:09:11.858Z,1.23
2019-03-01T17:11:42.407Z,1.40
2019-03-01T17:14:12.974Z,1.00
2019-03-01T17:16:42.590Z,0.90
2019-03-01T17:19:12.258Z,1.20
2019-03-01T17:21:41.895Z,1.07
2019-03-01T17:24:12.249Z,0.70
2019-03-01T17:26:42.958Z,0.73
2019-03-01T17:29:12.558Z,1.00
2019-03-01T17:31:42.182Z,0.73
2019-03-01T17:34:13.015Z,0.87
2019-03-01T17:36:42.641Z,0.90
2019-03-01T17:39:12.318Z,0.93
2019-03-01T17:41:44.863Z,1.07
2019-03-01T17:44:13.517Z,0.67
2019-03-01T17:46:43.127Z,0.80
2019-03-01T17:49:12.725Z,1.17
2019-03-01T17:51:42.334Z,1.50
2019-03-01T17:54:12.050Z,1.10
2019-03-01T17:56:41.654Z,1.10
2019-03-01T17:59:11.940Z,1.60
2019-03-01T18:01:42.586Z,1.30
2019-03-01T18:04:12.272Z,1.23
2019-03-01T18:06:42.000Z,0.80
2019-03-01T18:09:13.390Z,0.70
2019-03-01T18:11:44.535Z,1.00
2019-03-01T18:14:14.375Z,1.47
2019-03-01T18:16:44.055Z,0.83
2019-03-01T18:19:13.662Z,0.93
2019-03-01T18:21:46.432Z,1.30
2019-03-01T18:24:15.816Z,1.33
2019-03-01T18:26:46.707Z,1.70
2019-03-01T18:29:23.791Z,1.30
2019-03-01T18:31:56.395Z,1.37
2019-03-01T18:34:35.625Z,0.97
2019-03-01T18:37:19.011Z,1.00
2019-03-01T18:39:44.555Z,0.83
2019-03-01T18:42:17.429Z,1.03
2019-03-01T18:44:52.762Z,0.80
2019-03-01T18:47:27.901Z,0.90
2019-03-01T18:50:03.384Z,1.20
2019-03-01T18:52:35.677Z,0.70
2019-03-01T18:55:09.899Z,1.23
2019-03-01T18:57:44.209Z,0.83
2019-03-01T19:00:24.640Z,1.07
2019-03-01T19:03:01.017Z,1.03
2019-03-01T19:05:36.763Z,1.47
2019-03-01T19:08:08.721Z,1.50
2019-03-01T19:10:42.301Z,1.53
2019-03-01T19:13:14.337Z,1.97
2019-03-01T19:15:54.474Z,2.33
2019-03-01T19:18:23.763Z,1.00
2019-03-01T19:20:56.918Z,1.33
2019-03-01T19:23:29.339Z,1.90
2019-03-01T19:26:03.828Z,1.23
2019-03-01T19:28:40.023Z,0.90
2019-03-01T19:31:15.087Z,0.93
2019-03-01T19:33:50.325Z,1.93
2019-03-01T19:36:24.469Z,1.53
2019-03-01T19:39:00.384Z,0.70
2019-03-01T19:41:29.714Z,0.70
2019-03-01T19:44:04.877Z,0.93
2019-03-01T19:46:40.686Z,1.17
2019-03-01T19:49:14.625Z,0.70
2019-03-01T19:51:44.452Z,1.93
2019-03-01T19:54:18.131Z,1.03
2019-03-01T19:56:50.819Z,1.80
2019-03-01T19:59:24.604Z,1.73
2019-03-01T20:01:56.945Z,2.17
2019-03-01T20:04:29.082Z,1.60
2019-03-01T20:07:01.460Z,1.43
2019-03-01T20:09:31.967Z,1.30
2019-03-01T20:12:02.681Z,0.73
2019-03-01T20:14:33.787Z,1.07
2019-03-01T20:17:04.214Z,0.87
2019-03-01T20:19:36.203Z,1.20
2019-03-01T20:22:10.881Z,1.83
2019-03-01T20:24:43.288Z,1.70
2019-03-01T20:27:21.137Z,1.20
2019-03-01T20:29:56.392Z,1.30
2019-03-01T20:32:31.663Z,1.47
2019-03-01T20:35:05.513Z,2.30
2019-03-01T20:37:40.791Z,1.60
2019-03-01T20:40:13.592Z,1.83
2019-03-01T20:42:48.865Z,1.33
2019-03-01T20:45:30.009Z,1.53
2019-03-01T20:48:02.649Z,2.17
2019-03-01T20:50:37.210Z,1.50
2019-03-01T20:53:13.361Z,2.00
2019-03-01T20:55:44.665Z,1.77
2019-03-01T20:58:19.644Z,1.50
2019-03-01T21:00:55.263Z,1.30
2019-03-01T21:03:29.928Z,2.13
2019-03-01T21:06:04.638Z,1.27
2019-03-01T21:08:40.507Z,2.03
2019-03-01T21:11:17.542Z,1.50
2019-03-01T21:13:51.237Z,1.33
2019-03-01T21:16:25.735Z,1.17
2019-03-01T21:19:05.538Z,1.63
2019-03-01T21:21:44.224Z,1.03
2019-03-01T21:24:18.219Z,1.53
2019-03-01T21:26:53.240Z,1.67
2019-03-01T21:29:28.448Z,2.13
2019-03-01T21:32:11.723Z,1.93
2019-03-01T21:34:46.187Z,1.83
2019-03-01T21:37:20.213Z,1.73
2019-03-01T21:39:50.707Z,2.20
2019-03-01T21:42:26.102Z,3.67
2019-03-01T21:45:00.112Z,2.00
2019-03-01T21:47:33.083Z,2.33
2019-03-01T21:50:08.969Z,1.70
2019-03-01T21:52:46.754Z,2.27
2019-03-01T21:55:28.003Z,2.10
2019-03-01T21:57:56.150Z,1.70
2019-03-01T22:00:31.503Z,1.60
2019-03-01T22:03:01.951Z,2.33
2019-03-01T22:05:31.566Z,2.40
2019-03-01T22:08:01.189Z,2.70
2019-03-01T22:10:31.561Z,4.53
2019-03-01T22:13:02.146Z,2.97
2019-03-01T22:15:31.818Z,2.33
2019-03-01T22:18:01.486Z,2.20
2019-03-01T22:20:31.074Z,2.87
2019-03-01T22:23:00.752Z,2.43
2019-03-01T22:25:30.372Z,2.87
2019-03-01T22:28:01.188Z,3.40
2019-03-01T22:30:31.378Z,2.93
2019-03-01T22:33:01.124Z,3.57
2019-03-01T22:35:30.737Z,3.47
2019-03-01T22:38:01.094Z,3.03
2019-03-01T22:40:31.690Z,3.57
2019-03-01T22:43:01.322Z,3.80
2019-03-01T22:45:30.942Z,3.60
2019-03-01T22:48:00.582Z,4.03
2019-03-01T22:50:31.193Z,4.13
2019-03-01T22:53:03.151Z,3.93
2019-03-01T22:55:33.563Z,2.37
2019-03-01T22:58:03.244Z,2.87
2019-03-01T23:01:09.355Z,3.80
2019-03-01T23:03:41.098Z,3.87
2019-03-01T23:06:11.742Z,4.37
2019-03-01T23:08:42.117Z,3.60
2019-03-01T23:11:11.725Z,4.33
2019-03-01T23:13:41.380Z,4.60
2019-03-01T23:16:11.089Z,3.83
2019-03-01T23:18:41.403Z,3.23
2019-03-01T23:21:12.343Z,2.93
2019-03-01T23:23:41.966Z,3.03
2019-03-01T23:26:11.749Z,3.60
2019-03-01T23:28:43.784Z,3.13
2019-03-01T23:31:13.814Z,2.83
2019-03-01T23:33:44.555Z,4.57
2019-03-01T23:36:14.181Z,3.77
2019-03-01T23:38:46.577Z,3.23
2019-03-01T23:41:15.104Z,4.30
2019-03-01T23:43:44.718Z,3.67
2019-03-01T23:46:14.334Z,3.53
2019-03-01T23:48:45.540Z,3.63
2019-03-01T23:51:15.266Z,4.40
2019-03-01T23:53:44.877Z,4.80
2019-03-01T23:56:14.490Z,4.63
2019-03-01T23:58:47.978Z,4.87
